Zeran (malta) — 9HHJ5 — position and weather

sailwx.info

Track history (hours):
 
Tides and Currents Weather Stations Pressure Air Temp Water Temp Dewpoint Dewpoint Depression Visibility Wind Speed Wind Dir Waves Ship Positions

Zeran (malta)

Last reported at 2015-Aug-19 23:27 UTC. Time now 2015-Aug-28 09:29 UTC.
Position N 37°34' E 016°11'.
Warning: this ship's position is 8 days out of date.

Length 148 m; beam 24 m.

Type: Cargo ship. MMSI: 249846000.

Date/timePositionNaut miles runAvg speedWind from/ knotsBaromVisibWave heightAir tempDewpointWater temp
2015-Aug-19 23:27N 37°34' E 016°11'1010.6
2015-Aug-19 22:33N 37°26' E 016°04'6710.7
2015-Aug-19 16:19N 36°35' E 015°09'911.8
2015-Aug-19 15:33N 36°35' E 014°58'1211.7
2015-Aug-19 14:33N 36°36' E 014°44'1211.8
2015-Aug-19 13:33N 36°39' E 014°30'1211.9
2015-Aug-19 12:33N 36°45' E 014°17'1211.6
2015-Aug-19 11:33N 36°51' E 014°04'1211.5
2015-Aug-19 10:33N 36°56' E 013°51'1211.6
2015-Aug-19 09:33N 37°01' E 013°39'9110.9
2015-Aug-19 01:15N 37°49' E 012°01'1211.4
2015-Aug-19 00:14N 37°59' E 011°55'7510.6
2015-Aug-18 17:10N 39°10' E 011°23'711.2
2015-Aug-18 16:33N 39°16' E 011°20'24111.4
2015-Aug-17 19:29N 43°05' E 009°39'11 9.7
2015-Aug-17 18:21N 43°15' E 009°33'8 9.5
2015-Aug-17 17:33N 43°22' E 009°29'10 9.8
2015-Aug-17 16:33N 43°30' E 009°23'1010.3
2015-Aug-17 15:33N 43°40' E 009°17'1010.2
2015-Aug-17 14:33N 43°49' E 009°12'1010.0
2015-Aug-17 13:33N 43°59' E 009°08'1010.1
2015-Aug-17 12:33N 44°08' E 009°04'1010.0
2015-Aug-17 11:33N 44°18' E 008°59'8 7.5
2015-Aug-17 10:31N 44°24' E 008°53'0 0.0
2015-Aug-17 09:28N 44°24' E 008°53'0 0.0
2015-Aug-17 08:31N 44°24' E 008°53'0 0.0
2015-Aug-17 07:31N 44°24' E 008°53'0 0.0
2015-Aug-17 06:31N 44°24' E 008°53'0 0.0
2015-Aug-17 05:31N 44°24' E 008°53'0 0.0
2015-Aug-17 04:31N 44°24' E 008°53'0 0.0
2015-Aug-17 03:31N 44°24' E 008°53'0 0.0
2015-Aug-17 02:31N 44°24' E 008°53'0 0.0
2015-Aug-17 01:31N 44°24' E 008°53'0 0.0
2015-Aug-17 00:31N 44°24' E 008°53'0 0.0
2015-Aug-16 23:31N 44°24' E 008°53'0 0.0
2015-Aug-16 22:31N 44°24' E 008°53'0 0.0
2015-Aug-16 21:31N 44°24' E 008°53'0 0.0
2015-Aug-16 20:31N 44°24' E 008°53'0 0.0
2015-Aug-16 19:28N 44°24' E 008°53'0 0.0
2015-Aug-16 18:30N 44°24' E 008°53'0 0.0
2015-Aug-16 17:33N 44°24' E 008°53'0 0.0
2015-Aug-16 16:33N 44°24' E 008°53'0 0.0
2015-Aug-16 15:33N 44°24' E 008°53'0 0.0
2015-Aug-16 14:33N 44°24' E 008°53'0 0.0
2015-Aug-16 13:33N 44°24' E 008°53'0 0.0
2015-Aug-16 12:33N 44°24' E 008°53'0 0.0
2015-Aug-16 11:33N 44°24' E 008°53'0 0.0
2015-Aug-16 10:30N 44°24' E 008°53'0 0.0
2015-Aug-16 09:33N 44°24' E 008°53'0 0.0
2015-Aug-16 08:30N 44°24' E 008°53'0 0.0
2015-Aug-16 07:33N 44°24' E 008°53'0 0.3
2015-Aug-16 06:33N 44°24' E 008°53'7 7.2
2015-Aug-16 05:33N 44°19' E 008°60'8 8.3
2015-Aug-16 04:33N 44°11' E 009°04'8 8.4
2015-Aug-16 03:33N 44°03' E 009°07'8 8.1
2015-Aug-16 02:33N 43°55' E 009°11'8 8.1
2015-Aug-16 01:33N 43°48' E 009°15'8 8.4
2015-Aug-16 00:33N 43°40' E 009°20'8 8.3
2015-Aug-15 23:33N 43°33' E 009°25'8 8.4
2015-Aug-15 22:34N 43°25' E 009°29'9 8.6
2015-Aug-15 21:33N 43°17' E 009°33'9 9.2
2015-Aug-15 20:33N 43°08' E 009°38'274 8.8
2015-Aug-14 13:23N 38°43' E 011°07'7 9.0
2015-Aug-14 12:33N 38°37' E 011°13'9 9.4
2015-Aug-14 11:34N 38°30' E 011°21'10 9.7
2015-Aug-14 10:34N 38°22' E 011°28'1010.4
2015-Aug-14 09:34N 38°14' E 011°36'1010.2
2015-Aug-14 08:34N 38°06' E 011°45'20 9.7
2015-Aug-14 06:31N 37°51' E 012°00'1010.1
2015-Aug-14 05:33N 37°42' E 012°06'10 9.9
2015-Aug-14 04:33N 37°34' E 012°14'1010.0
2015-Aug-14 03:33N 37°29' E 012°24'1010.2
2015-Aug-14 02:33N 37°23' E 012°35'1510.1
2015-Aug-14 01:05N 37°16' E 012°51'610.5
2015-Aug-14 00:31N 37°12' E 012°57'1310.6
2015-Aug-13 23:18N 37°05' E 013°11'810.8
2015-Aug-13 22:33N 37°02' E 013°20'1110.6
2015-Aug-13 21:33N 36°57' E 013°32'1110.6
2015-Aug-13 20:33N 36°53' E 013°44'1110.8
2015-Aug-13 19:33N 36°48' E 013°56'1110.8
2015-Aug-13 18:34N 36°43' E 014°08'1110.7
2015-Aug-13 17:33N 36°38' E 014°20'1110.6
2015-Aug-13 16:34N 36°33' E 014°31'1110.5
2015-Aug-13 15:33N 36°26' E 014°41'1010.4
2015-Aug-13 14:33N 36°20' E 014°51'12 9.6
2015-Aug-13 13:18N 36°10' E 014°59'  
Track history (hours):
 
Tides and Currents Weather Stations Pressure Air Temp Water Temp Dewpoint Dewpoint Depression Visibility Wind Speed Wind Dir Waves Ship Positions

Zeran (malta)

Last reported at 2015-Aug-19 23:27 UTC. Time now 2015-Aug-28 09:29 UTC.
Position N 37°34' E 016°11'.
Warning: this ship's position is 8 days out of date.

Length 148 m; beam 24 m.

Type: Cargo ship. MMSI: 249846000.

Date/timePositionNaut miles runAvg speedWind from/ knotsBaromVisibWave heightAir tempDewpointWater temp
2015-Aug-19 23:27N 37°34' E 016°11'1010.6
2015-Aug-19 22:33N 37°26' E 016°04'6710.7
2015-Aug-19 16:19N 36°35' E 015°09'911.8
2015-Aug-19 15:33N 36°35' E 014°58'1211.7
2015-Aug-19 14:33N 36°36' E 014°44'1211.8
2015-Aug-19 13:33N 36°39' E 014°30'1211.9
2015-Aug-19 12:33N 36°45' E 014°17'1211.6
2015-Aug-19 11:33N 36°51' E 014°04'1211.5
2015-Aug-19 10:33N 36°56' E 013°51'1211.6
2015-Aug-19 09:33N 37°01' E 013°39'9110.9
2015-Aug-19 01:15N 37°49' E 012°01'1211.4
2015-Aug-19 00:14N 37°59' E 011°55'7510.6
2015-Aug-18 17:10N 39°10' E 011°23'711.2
2015-Aug-18 16:33N 39°16' E 011°20'24111.4
2015-Aug-17 19:29N 43°05' E 009°39'11 9.7
2015-Aug-17 18:21N 43°15' E 009°33'8 9.5
2015-Aug-17 17:33N 43°22' E 009°29'10 9.8
2015-Aug-17 16:33N 43°30' E 009°23'1010.3
2015-Aug-17 15:33N 43°40' E 009°17'1010.2
2015-Aug-17 14:33N 43°49' E 009°12'1010.0
2015-Aug-17 13:33N 43°59' E 009°08'1010.1
2015-Aug-17 12:33N 44°08' E 009°04'1010.0
2015-Aug-17 11:33N 44°18' E 008°59'8 7.5
2015-Aug-17 10:31N 44°24' E 008°53'0 0.0
2015-Aug-17 09:28N 44°24' E 008°53'0 0.0
2015-Aug-17 08:31N 44°24' E 008°53'0 0.0
2015-Aug-17 07:31N 44°24' E 008°53'0 0.0
2015-Aug-17 06:31N 44°24' E 008°53'0 0.0
2015-Aug-17 05:31N 44°24' E 008°53'0 0.0
2015-Aug-17 04:31N 44°24' E 008°53'0 0.0
2015-Aug-17 03:31N 44°24' E 008°53'0 0.0
2015-Aug-17 02:31N 44°24' E 008°53'0 0.0
2015-Aug-17 01:31N 44°24' E 008°53'0 0.0
2015-Aug-17 00:31N 44°24' E 008°53'0 0.0
2015-Aug-16 23:31N 44°24' E 008°53'0 0.0
2015-Aug-16 22:31N 44°24' E 008°53'0 0.0
2015-Aug-16 21:31N 44°24' E 008°53'0 0.0
2015-Aug-16 20:31N 44°24' E 008°53'0 0.0
2015-Aug-16 19:28N 44°24' E 008°53'0 0.0
2015-Aug-16 18:30N 44°24' E 008°53'0 0.0
2015-Aug-16 17:33N 44°24' E 008°53'0 0.0
2015-Aug-16 16:33N 44°24' E 008°53'0 0.0
2015-Aug-16 15:33N 44°24' E 008°53'0 0.0
2015-Aug-16 14:33N 44°24' E 008°53'0 0.0
2015-Aug-16 13:33N 44°24' E 008°53'0 0.0
2015-Aug-16 12:33N 44°24' E 008°53'0 0.0
2015-Aug-16 11:33N 44°24' E 008°53'0 0.0
2015-Aug-16 10:30N 44°24' E 008°53'0 0.0
2015-Aug-16 09:33N 44°24' E 008°53'0 0.0
2015-Aug-16 08:30N 44°24' E 008°53'0 0.0
2015-Aug-16 07:33N 44°24' E 008°53'0 0.3
2015-Aug-16 06:33N 44°24' E 008°53'7 7.2
2015-Aug-16 05:33N 44°19' E 008°60'8 8.3
2015-Aug-16 04:33N 44°11' E 009°04'8 8.4
2015-Aug-16 03:33N 44°03' E 009°07'8 8.1
2015-Aug-16 02:33N 43°55' E 009°11'8 8.1
2015-Aug-16 01:33N 43°48' E 009°15'8 8.4
2015-Aug-16 00:33N 43°40' E 009°20'8 8.3
2015-Aug-15 23:33N 43°33' E 009°25'8 8.4
2015-Aug-15 22:34N 43°25' E 009°29'9 8.6
2015-Aug-15 21:33N 43°17' E 009°33'9 9.2
2015-Aug-15 20:33N 43°08' E 009°38'274 8.8
2015-Aug-14 13:23N 38°43' E 011°07'7 9.0
2015-Aug-14 12:33N 38°37' E 011°13'9 9.4
2015-Aug-14 11:34N 38°30' E 011°21'10 9.7
2015-Aug-14 10:34N 38°22' E 011°28'1010.4
2015-Aug-14 09:34N 38°14' E 011°36'1010.2
2015-Aug-14 08:34N 38°06' E 011°45'20 9.7
2015-Aug-14 06:31N 37°51' E 012°00'1010.1
2015-Aug-14 05:33N 37°42' E 012°06'10 9.9
2015-Aug-14 04:33N 37°34' E 012°14'1010.0
2015-Aug-14 03:33N 37°29' E 012°24'1010.2
2015-Aug-14 02:33N 37°23' E 012°35'1510.1
2015-Aug-14 01:05N 37°16' E 012°51'610.5
2015-Aug-14 00:31N 37°12' E 012°57'1310.6
2015-Aug-13 23:18N 37°05' E 013°11'810.8
2015-Aug-13 22:33N 37°02' E 013°20'1110.6
2015-Aug-13 21:33N 36°57' E 013°32'1110.6
2015-Aug-13 20:33N 36°53' E 013°44'1110.8
2015-Aug-13 19:33N 36°48' E 013°56'1110.8
2015-Aug-13 18:34N 36°43' E 014°08'1110.7
2015-Aug-13 17:33N 36°38' E 014°20'1110.6
2015-Aug-13 16:34N 36°33' E 014°31'1110.5
2015-Aug-13 15:33N 36°26' E 014°41'1010.4
2015-Aug-13 14:33N 36°20' E 014°51'12 9.6
2015-Aug-13 13:18N 36°10' E 014°59'  

Dump ship's entire track history